Startpagina
METAR-TAF:

METAR-TAF

Vliegvelden :

Julius Nyerere International Airport

Dar es Salaam, Tanzania

breedte: 06-52S, lengte: 039-12E, hoogte: 55 m

Actueel weer

Dit bericht is 27 minuten geleden gemaakt, om 05:00 UTC
Wind 5 kt uit het zuidzuidwesten
Temperatuur 25°C
Vochtigheid 94%
Druk 1014 hPa
Zicht 10 km of meer
Weinig wolken op 1500 ft
Gebroken wolken op 7000 ft

METAR: HTDA 210500Z 20005KT 9999 FEW015 BKN070 25/24 Q1014 NOSIG

Tijdstip: 08:27 (05:27 UTC)

Verwachting

Dit bericht is 6 uur en het 27 minuten geleden gemaakt, om 23:00 UTC
Verwachting geldig van 21 om 00 UTC tot 22 om 06 UTC
Wind 5 kt uit het zuiden
Zicht 10 km of meer
Gebroken wolken op 1800 ft
Weinig wolken op 1900 ft, Cumulonimbus.
Tijdelijke
van 21 om 07 UTC tot 21 om 12 UTC
Wind 10 kt uit het zuiden
regenbuien

TAF: HTDA 202300Z 2100/2206 18005KT 9999 BKN018 FEW019CB TEMPO 2107/2112 17010KT SHRA

Waarnemingen en weersverwachtingen van meer dan 4000 vliegvelden (METAR en TAF).

De beschikbare stations zijn de gele en rode punten op de kaart.

Ga met uw muis naar het station om de naam te zien.

Klik dan om waarnemingen en weersverwachtingen te zien.

kaart wijzigen: klik op de groene knoppen met een zwart kruis om in te zoomen, op de groene knop met een streepje om uit te zoomen of op de groene pijlen voor aangrenzende kaarten.


METAR-TAF: